Cairns AAF (Fort Rucker) Air Field Fort Rucker,Ozark US
ICAO: KOZR
IATA: OZR
Category: Medium
Scheduled Services: No

Elevation: 301 ft
TransAlt. 18000 ft.

Airport Communications:
APP/DEP:121.1
ATIS:111.2
CLNC DEL:118.075
CTAF:135.2
GND:121.9
OPS:126.2
PMSV METRO:134.1
TWR:135.2

KOZR Zoom In..

If you have problems with the map follow the link
https://www.worldairports.se/pages/airport.php?
ICAO=KOZR

Runways:

(A) RW 06 length 4546 ft width 150 ft
ILS 109.70 / hdg 64

(B) RW 18 length 5025 ft width 150 ft
---- / hdg 184

(C) RW 24 length 4546 ft width 150 ft
---- / hdg 244

(D) RW 36 length 5025 ft width 150 ft
---- / hdg 4

Location; KOZR
Day. 22 / Time. 10.56 Zulu
* Altimeter: 30.21
* Temperature: 07° c. 44.6°f.
* Wind from: 040° Speed 06 kn.
Dewpoint: 04° c.
Visibility: 10 Statute Miles.
Clouds: Clear (automated report).

KOZR 221056Z AUTO 04006KT 10SM CLR 07/04 A3021 RMK AO2 SLP233 T00670042


Wind From 040°
Speed 06 kn.

 
 
jpsmedia.com for Web Design worldairports.se 2018   terms of use